Time;durP1;ratioP1;P1;durP2;ratioP2;P2;SDS_P1;SDS_P2;PMS_P1;PMS_P2;Temp;Humidity;BMP_temperature;BMP_pressure;BME280_temperature;BME280_humidity;BME280_pressure;Samples;Min_cycle;Max_cycle;Signal;HPM_P1;HPM_P2
2021/09/12 00:01:42;;;;;;;3.63;3.33;;;;;;;13.02;86.76;95912.94;6163149;23;20152;-77
2021/09/12 00:04:07;;;;;;;4.00;3.60;;;;;;;12.97;86.80;95909.16;6138121;23;20163;-78
2021/09/12 00:06:32;;;;;;;4.73;3.63;;;;;;;12.99;87.03;95907.25;6138826;23;20186;-78
2021/09/12 00:08:58;;;;;;;4.40;3.50;;;;;;;12.97;86.76;95903.94;6163198;23;20166;-77
2021/09/12 00:11:23;;;;;;;4.40;3.50;;;;;;;12.90;86.29;95905.56;6163110;23;20156;-79
2021/09/12 00:13:48;;;;;;;4.07;3.40;;;;;;;12.86;86.73;95905.03;6163679;23;20156;-78
2021/09/12 00:16:14;;;;;;;3.97;3.57;;;;;;;12.88;86.70;95908.28;6163915;23;20179;-77
2021/09/12 00:18:39;;;;;;;3.73;3.43;;;;;;;13.08;85.75;95908.09;6164839;23;20621;-78
2021/09/12 00:21:05;;;;;;;3.73;3.40;;;;;;;13.04;85.21;95910.19;6140151;23;20155;-79
2021/09/12 00:23:30;;;;;;;3.80;3.30;;;;;;;12.96;85.50;95915.34;6165271;23;20246;-78
2021/09/12 00:25:55;;;;;;;5.47;3.87;;;;;;;12.84;86.02;95911.38;6168761;23;20187;-78
2021/09/12 00:28:21;;;;;;;3.97;2.93;;;;;;;12.80;86.36;95910.00;6169174;23;20155;-77
2021/09/12 00:30:46;;;;;;;3.23;2.80;;;;;;;12.93;85.68;95900.03;6169560;23;20190;-78
2021/09/12 00:33:11;;;;;;;4.17;3.17;;;;;;;12.77;86.27;95903.31;6170275;23;20198;-79
2021/09/12 00:35:37;;;;;;;4.57;3.43;;;;;;;12.75;86.26;95898.28;6169024;23;20183;-79
2021/09/12 00:38:02;;;;;;;4.10;3.30;;;;;;;12.77;86.04;95901.53;6170046;23;20158;-79
2021/09/12 00:40:27;;;;;;;3.37;3.07;;;;;;;12.76;85.73;95891.28;6167999;23;20596;-78
2021/09/12 00:42:53;;;;;;;4.67;3.13;;;;;;;12.74;85.57;95895.81;6170027;23;20632;-80
2021/09/12 00:45:19;;;;;;;4.10;3.40;;;;;;;12.75;85.36;95890.47;6169191;23;20190;-79
2021/09/12 00:47:46;;;;;;;3.73;3.30;;;;;;;12.73;85.23;95892.41;6145537;23;20163;-79
2021/09/12 00:50:12;;;;;;;4.13;3.13;;;;;;;12.71;85.16;95891.72;6170114;23;20162;-78
2021/09/12 00:52:41;;;;;;;4.10;3.37;;;;;;;12.71;85.37;95891.72;6169776;23;20155;-78
2021/09/12 00:55:06;;;;;;;3.53;3.00;;;;;;;12.69;84.91;95891.06;6144285;23;20194;-78
2021/09/12 00:57:34;;;;;;;4.20;3.27;;;;;;;12.67;85.28;95889.59;6145236;23;20159;-77
2021/09/12 00:59:59;;;;;;;6.10;3.30;;;;;;;12.66;84.92;95891.38;6145389;23;20185;-77
2021/09/12 01:02:25;;;;;;;5.80;3.83;;;;;;;12.62;85.07;95891.81;6169846;23;20226;-79
2021/09/12 01:04:50;;;;;;;3.57;3.27;;;;;;;12.57;85.51;95894.88;6168779;23;20179;-78
2021/09/12 01:07:15;;;;;;;3.73;3.33;;;;;;;12.55;85.33;95890.81;6172120;23;20155;-78
2021/09/12 01:09:40;;;;;;;4.40;3.37;;;;;;;12.54;85.66;95889.13;6169030;23;20159;-80
2021/09/12 01:12:07;;;;;;;3.20;2.90;;;;;;;12.49;85.87;95887.00;6144592;23;20151;-79
2021/09/12 01:14:33;;;;;;;3.97;3.20;;;;;;;12.38;86.42;95884.66;6143253;23;20202;-79
2021/09/12 01:16:59;;;;;;;6.07;3.20;;;;;;;12.28;86.88;95889.09;6169092;23;20182;-79
2021/09/12 01:19:24;;;;;;;4.07;3.23;;;;;;;12.28;86.85;95886.50;6169109;23;20570;-79
2021/09/12 01:21:58;;;;;;;4.17;3.23;;;;;;;12.21;86.91;95883.69;6168802;23;20158;-77
2021/09/12 01:24:24;;;;;;;5.20;3.17;;;;;;;12.18;87.42;95883.97;6168623;23;20151;-80
2021/09/12 01:26:50;;;;;;;4.27;3.40;;;;;;;12.10;87.75;95882.13;6169047;23;20156;-77
2021/09/12 01:29:15;;;;;;;3.60;3.30;;;;;;;12.06;87.69;95885.97;6174666;23;20516;-78
2021/09/12 01:31:40;;;;;;;5.23;3.20;;;;;;;12.06;87.76;95883.38;6172949;23;20155;-77
2021/09/12 01:34:06;;;;;;;3.93;3.30;;;;;;;12.04;87.83;95879.28;6172030;23;20209;-79
2021/09/12 01:36:31;;;;;;;3.80;3.43;;;;;;;12.01;88.00;95883.00;6148878;23;20258;-78
2021/09/12 01:38:56;;;;;;;5.60;3.87;;;;;;;12.03;87.83;95886.28;6146421;23;20159;-76
2021/09/12 01:41:22;;;;;;;4.70;4.30;;;;;;;12.00;88.23;95880.53;6173993;23;20182;-79
2021/09/12 01:43:53;;;;;;;3.97;3.53;;;;;;;11.99;88.19;95879.72;6172413;23;20739;-77
2021/09/12 01:46:18;;;;;;;4.43;3.57;;;;;;;11.97;88.33;95876.47;6172742;23;20178;-79
2021/09/12 01:48:44;;;;;;;4.17;3.40;;;;;;;11.94;88.21;95876.75;6148256;23;20159;-80
2021/09/12 01:51:10;;;;;;;5.30;3.77;;;;;;;11.95;87.97;95872.38;6173313;23;20207;-80
2021/09/12 01:53:36;;;;;;;4.63;3.63;;;;;;;11.90;88.18;95878.00;6172776;23;20215;-80
2021/09/12 01:56:03;;;;;;;4.23;3.90;;;;;;;11.94;88.28;95883.75;6173117;23;20218;-80
2021/09/12 01:58:28;;;;;;;5.53;3.27;;;;;;;11.91;88.55;95872.66;6174441;23;20158;-79
2021/09/12 02:00:54;;;;;;;4.47;3.70;;;;;;;11.88;88.29;95883.38;6148754;23;20159;-80
2021/09/12 02:03:19;;;;;;;3.73;3.33;;;;;;;11.91;88.41;95883.06;6173794;23;20171;-79
2021/09/12 02:05:44;;;;;;;6.27;3.70;;;;;;;11.91;88.71;95877.84;6172500;23;20225;-80
2021/09/12 02:08:09;;;;;;;5.63;3.80;;;;;;;11.94;88.59;95878.53;6149714;23;20159;-80
2021/09/12 02:10:35;;;;;;;6.37;4.00;;;;;;;11.93;88.71;95882.94;6175676;23;20159;-79
2021/09/12 02:13:00;;;;;;;3.93;3.57;;;;;;;11.93;88.22;95876.88;6149769;23;20182;-80
2021/09/12 02:15:25;;;;;;;3.83;3.53;;;;;;;11.91;88.45;95877.03;6175811;23;20171;-79
2021/09/12 02:17:51;;;;;;;8.83;4.20;;;;;;;11.95;88.23;95873.19;6151883;23;20170;-80
2021/09/12 02:20:16;;;;;;;4.47;3.53;;;;;;;11.98;88.35;95872.06;6175593;23;20263;-79
2021/09/12 02:22:41;;;;;;;4.60;3.70;;;;;;;12.05;88.06;95871.34;6174809;23;20183;-77
2021/09/12 02:25:07;;;;;;;4.30;3.90;;;;;;;12.01;87.85;95871.75;6175559;23;20198;-78
2021/09/12 02:27:32;;;;;;;4.13;3.73;;;;;;;11.99;87.93;95869.31;6150909;23;20166;-78
2021/09/12 02:29:57;;;;;;;5.40;3.30;;;;;;;11.95;88.22;95867.97;6150710;23;20163;-77
2021/09/12 02:32:23;;;;;;;4.63;3.93;;;;;;;11.93;88.49;95864.72;6174907;23;20185;-79
2021/09/12 02:34:48;;;;;;;7.63;4.10;;;;;;;11.89;88.54;95860.75;6173167;23;20175;-78
2021/09/12 02:37:13;;;;;;;4.70;3.77;;;;;;;11.87;88.53;95860.91;6173428;23;20182;-78
2021/09/12 02:39:39;;;;;;;5.27;4.07;;;;;;;11.85;88.45;95849.03;6172300;23;20346;-78
2021/09/12 02:42:04;;;;;;;4.40;4.00;;;;;;;11.81;88.71;95848.47;6172251;23;20194;-79
2021/09/12 02:44:29;;;;;;;4.97;3.37;;;;;;;11.80;88.71;95848.63;6171539;23;20159;-79
2021/09/12 02:46:55;;;;;;;4.63;3.80;;;;;;;11.78;88.51;95853.16;6147880;23;20237;-77
2021/09/12 02:49:20;;;;;;;5.87;3.60;;;;;;;11.77;88.56;95852.31;6171542;23;20230;-78
2021/09/12 02:51:45;;;;;;;4.77;3.73;;;;;;;11.81;88.56;95856.28;6147005;23;20215;-78
2021/09/12 02:54:13;;;;;;;3.97;3.67;;;;;;;11.77;88.38;95849.72;6170669;23;20234;-80
2021/09/12 02:56:38;;;;;;;5.23;3.67;;;;;;;11.77;88.19;95854.94;6172422;23;20144;-80
2021/09/12 02:59:04;;;;;;;4.00;3.60;;;;;;;11.74;88.42;95852.59;6173810;23;20467;-79
2021/09/12 03:01:29;;;;;;;4.07;3.53;;;;;;;11.72;88.19;95851.13;6171979;23;20155;-80
2021/09/12 03:03:54;;;;;;;4.03;3.33;;;;;;;11.69;87.99;95862.66;6170205;23;20188;-78
2021/09/12 03:06:20;;;;;;;5.27;3.20;;;;;;;11.70;88.28;95866.88;6147733;23;20267;-78
2021/09/12 03:08:45;;;;;;;4.00;3.30;;;;;;;11.72;87.93;95864.13;6147737;23;20219;-79
2021/09/12 03:11:10;;;;;;;5.13;3.30;;;;;;;11.67;88.28;95863.78;6173336;23;20238;-79
2021/09/12 03:13:36;;;;;;;3.73;3.30;;;;;;;11.71;87.67;95865.09;6169725;23;20171;-79
2021/09/12 03:16:01;;;;;;;3.47;3.17;;;;;;;11.70;87.86;95859.06;6172984;23;20182;-80
2021/09/12 03:18:26;;;;;;;4.27;3.50;;;;;;;11.69;88.03;95859.22;6148063;23;20508;-81
2021/09/12 03:20:52;;;;;;;3.63;3.33;;;;;;;11.66;87.83;95856.91;6174026;23;20162;-79
2021/09/12 03:23:17;;;;;;;3.87;3.17;;;;;;;11.62;87.74;95864.19;6172475;23;20230;-79
2021/09/12 03:25:43;;;;;;;3.40;3.10;;;;;;;11.60;87.92;95866.13;6170684;23;20179;-80
2021/09/12 03:28:09;;;;;;;3.63;3.10;;;;;;;11.61;87.90;95859.97;6172078;23;20210;-79
2021/09/12 03:30:34;;;;;;;4.00;3.43;;;;;;;11.58;88.04;95855.06;6146908;23;20506;-79
2021/09/12 03:32:59;;;;;;;4.10;2.93;;;;;;;11.56;87.73;95857.78;6169918;23;20179;-77
2021/09/12 03:35:25;;;;;;;3.67;3.30;;;;;;;11.55;87.76;95856.16;6145034;23;20561;-79
2021/09/12 03:37:50;;;;;;;3.40;3.20;;;;;;;11.53;87.88;95854.66;6170217;23;20152;-80
2021/09/12 03:40:15;;;;;;;4.40;3.60;;;;;;;11.48;87.97;95846.47;6143644;23;20171;-77
2021/09/12 03:42:41;;;;;;;3.97;3.20;;;;;;;11.45;87.85;95851.97;6170874;23;20187;-78
2021/09/12 03:45:06;;;;;;;4.07;3.27;;;;;;;11.36;88.16;95851.06;6169854;23;20179;-77
2021/09/12 03:47:32;;;;;;;4.17;3.20;;;;;;;11.32;88.35;95849.72;6169937;23;20163;-78
2021/09/12 03:49:57;;;;;;;4.53;3.23;;;;;;;11.30;88.64;95851.63;6170451;23;20171;-79
2021/09/12 03:52:22;;;;;;;3.50;3.20;;;;;;;11.24;88.45;95847.03;6147026;23;20155;-78
2021/09/12 03:54:48;;;;;;;3.50;3.20;;;;;;;11.20;88.63;95848.25;6169288;23;20214;-76
2021/09/12 03:57:13;;;;;;;3.67;3.00;;;;;;;11.21;88.22;95847.28;6172162;23;20152;-79
2021/09/12 03:59:39;;;;;;;4.03;3.33;;;;;;;11.16;88.22;95849.53;6172301;23;20683;-78
2021/09/12 04:02:05;;;;;;;3.43;3.13;;;;;;;11.13;88.06;95844.59;6169795;23;20172;-79
2021/09/12 04:04:30;;;;;;;4.00;3.27;;;;;;;11.11;88.15;95846.53;6170231;23;20235;-78
2021/09/12 04:06:55;;;;;;;3.50;3.20;;;;;;;11.05;88.36;95846.16;6170618;23;20170;-79
2021/09/12 04:09:21;;;;;;;3.40;3.10;;;;;;;11.04;88.21;95847.13;6170506;23;20171;-78
2021/09/12 04:11:46;;;;;;;4.50;3.10;;;;;;;11.04;88.15;95847.13;6170477;23;20151;-77
2021/09/12 04:14:11;;;;;;;4.97;3.50;;;;;;;11.06;88.29;95841.78;6169989;23;20709;-78
2021/09/12 04:16:37;;;;;;;4.60;2.80;;;;;;;11.09;87.96;95849.28;6170579;23;20191;-78
2021/09/12 04:19:02;;;;;;;3.73;3.10;;;;;;;11.10;87.69;95839.69;6146280;23;20162;-79
2021/09/12 04:21:27;;;;;;;3.20;2.90;;;;;;;11.10;87.75;95842.28;6146045;23;20673;-78
2021/09/12 04:23:53;;;;;;;4.93;2.80;;;;;;;11.16;87.68;95841.72;6145156;23;20242;-78
2021/09/12 04:26:18;;;;;;;3.50;3.20;;;;;;;11.15;87.53;95840.91;6145082;23;20239;-79
2021/09/12 04:28:43;;;;;;;5.43;3.20;;;;;;;11.14;87.38;95841.88;6145996;23;20174;-79
2021/09/12 04:31:10;;;;;;;5.23;3.20;;;;;;;11.15;87.38;95840.09;6170804;23;20159;-77
2021/09/12 04:33:36;;;;;;;4.90;3.03;;;;;;;11.12;87.39;95838.56;6168552;23;20179;-79
2021/09/12 04:36:01;;;;;;;3.57;2.83;;;;;;;11.11;87.33;95844.75;6146580;23;20230;-80
2021/09/12 04:38:26;;;;;;;3.77;3.13;;;;;;;11.09;87.08;95843.25;6169961;23;20290;-80
2021/09/12 04:40:52;;;;;;;4.23;3.00;;;;;;;11.04;87.74;95841.91;6168725;23;20212;-79
2021/09/12 04:43:17;;;;;;;4.93;3.27;;;;;;;11.00;87.93;95844.94;6170222;23;20512;-78
2021/09/12 04:45:42;;;;;;;3.53;2.70;;;;;;;11.00;87.99;95839.72;6169575;23;20194;-79
2021/09/12 04:48:08;;;;;;;3.13;2.90;;;;;;;10.98;87.96;95839.88;6171119;23;20162;-79
2021/09/12 04:50:33;;;;;;;3.23;2.93;;;;;;;10.97;87.72;95850.41;6146496;23;20170;-77
2021/09/12 04:52:58;;;;;;;2.93;2.73;;;;;;;10.93;87.75;95846.47;6145695;23;20155;-77
2021/09/12 04:55:24;;;;;;;3.43;3.00;;;;;;;10.94;87.88;95856.69;6144139;23;20214;-76
2021/09/12 04:57:49;;;;;;;3.30;2.90;;;;;;;10.94;87.65;95848.91;6170191;23;20181;-77
2021/09/12 05:00:14;;;;;;;4.50;4.10;;;;;;;10.94;87.66;95843.72;6170344;23;20155;-79
2021/09/12 05:02:40;;;;;;;3.43;2.80;;;;;;;10.92;87.45;95853.44;6170161;23;20214;-79
2021/09/12 05:05:06;;;;;;;3.47;3.27;;;;;;;10.92;87.56;95853.44;6169840;23;20182;-78
2021/09/12 05:07:31;;;;;;;3.10;2.87;;;;;;;10.95;87.66;95854.91;6146442;23;20160;-79
2021/09/12 05:09:56;;;;;;;3.10;2.90;;;;;;;10.96;87.81;95856.59;6146051;23;20500;-77
2021/09/12 05:12:21;;;;;;;3.57;3.00;;;;;;;10.98;87.41;95865.06;6171486;23;20195;-78
2021/09/12 05:14:47;;;;;;;3.90;2.73;;;;;;;10.98;87.52;95865.88;6169460;23;20214;-79
2021/09/12 05:17:12;;;;;;;3.23;2.83;;;;;;;10.97;87.85;95861.63;6170096;23;20151;-77
2021/09/12 05:19:37;;;;;;;4.13;3.10;;;;;;;10.97;87.95;95859.03;6170811;23;20158;-79
2021/09/12 05:22:03;;;;;;;2.87;2.67;;;;;;;11.02;87.71;95848.19;6169933;23;20179;-79
2021/09/12 05:24:28;;;;;;;4.80;3.20;;;;;;;11.03;87.63;95855.84;6144647;23;20270;-79
2021/09/12 05:26:53;;;;;;;5.83;3.33;;;;;;;11.05;87.64;95863.53;6173310;23;20151;-79
2021/09/12 05:29:22;;;;;;;2.97;2.67;;;;;;;11.06;88.26;95865.97;6170612;23;20227;-78
2021/09/12 05:31:48;;;;;;;3.10;2.80;;;;;;;11.11;87.50;95857.75;6171108;23;20152;-78
2021/09/12 05:34:13;;;;;;;5.70;3.10;;;;;;;11.15;87.69;95858.28;6170058;23;20220;-77
2021/09/12 05:36:38;;;;;;;3.37;3.07;;;;;;;11.21;87.52;95862.88;6170783;23;20171;-77
2021/09/12 05:39:03;;;;;;;5.63;2.70;;;;;;;11.28;87.38;95858.75;6170658;23;20179;-79
2021/09/12 05:41:29;;;;;;;3.40;2.93;;;;;;;11.30;86.97;95855.03;6145953;23;20609;-78
2021/09/12 05:43:54;;;;;;;4.93;2.97;;;;;;;11.35;86.92;95860.66;6145493;23;20202;-80
2021/09/12 05:46:19;;;;;;;3.40;2.93;;;;;;;11.44;87.00;95858.13;6170779;23;20183;-78
2021/09/12 05:48:45;;;;;;;3.53;2.90;;;;;;;11.53;86.91;95867.66;6146299;23;20159;-78
2021/09/12 05:51:10;;;;;;;3.17;2.87;;;;;;;11.55;86.79;95866.56;6172619;23;20234;-79
2021/09/12 05:53:35;;;;;;;2.80;2.60;;;;;;;11.62;86.16;95867.59;6145568;23;20230;-79
2021/09/12 05:56:01;;;;;;;4.37;2.57;;;;;;;11.71;86.52;95865.91;6171918;23;20198;-78
2021/09/12 05:58:26;;;;;;;3.33;2.63;;;;;;;11.79;86.21;95863.41;6171678;23;20155;-79
2021/09/12 06:00:52;;;;;;;4.67;3.07;;;;;;;11.88;86.16;95857.34;6146313;23;20210;-79
2021/09/12 06:03:18;;;;;;;5.60;2.97;;;;;;;12.00;86.03;95864.91;6170200;23;20179;-78
2021/09/12 06:05:43;;;;;;;4.17;2.60;;;;;;;12.08;86.10;95865.00;6145312;23;20226;-78
2021/09/12 06:08:08;;;;;;;3.03;2.73;;;;;;;12.20;85.65;95866.44;6171210;23;20160;-78
2021/09/12 06:10:34;;;;;;;3.70;3.10;;;;;;;12.31;85.57;95865.38;6145787;23;20171;-80
2021/09/12 06:12:59;;;;;;;3.97;2.57;;;;;;;12.39;85.46;95868.88;6170299;23;20151;-77
2021/09/12 06:15:25;;;;;;;3.10;2.63;;;;;;;12.49;85.25;95868.78;6172789;23;20171;-78
2021/09/12 06:17:50;;;;;;;2.80;2.60;;;;;;;12.62;85.09;95870.97;6147971;23;20151;-77
2021/09/12 06:20:15;;;;;;;3.30;2.67;;;;;;;12.71;84.83;95867.44;6147861;23;20155;-79
2021/09/12 06:22:43;;;;;;;3.00;2.70;;;;;;;12.82;84.69;95864.59;6172822;23;20268;-78
2021/09/12 06:25:08;;;;;;;4.70;2.73;;;;;;;12.92;84.23;95862.72;6146722;23;20179;-78
2021/09/12 06:27:33;;;;;;;2.53;2.33;;;;;;;12.99;83.61;95868.94;6147285;23;20162;-78
2021/09/12 06:29:59;;;;;;;2.87;2.50;;;;;;;13.03;83.53;95867.66;6172467;23;20159;-78
2021/09/12 06:32:24;;;;;;;2.93;2.53;;;;;;;13.11;83.41;95871.28;6172106;23;20166;-78
2021/09/12 06:34:49;;;;;;;2.63;2.40;;;;;;;13.18;83.72;95875.72;6171567;23;20179;-77
2021/09/12 06:37:15;;;;;;;4.70;2.60;;;;;;;13.22;83.16;95874.47;6174207;23;20621;-79
2021/09/12 06:39:40;;;;;;;2.73;2.43;;;;;;;13.29;83.14;95875.47;6145908;23;20170;-78
2021/09/12 06:42:05;;;;;;;3.60;2.60;;;;;;;13.32;83.31;95874.34;6174470;23;20179;-79
2021/09/12 06:44:30;;;;;;;3.40;2.50;;;;;;;13.41;83.27;95881.22;6146040;23;20163;-77
2021/09/12 06:46:56;;;;;;;3.37;2.43;;;;;;;13.49;83.18;95880.44;6171054;23;20487;-76
2021/09/12 06:49:21;;;;;;;2.63;2.43;;;;;;;13.53;82.45;95876.56;6171823;23;20212;-76
2021/09/12 06:51:46;;;;;;;3.33;2.40;;;;;;;13.57;82.54;95877.88;6172309;23;20162;-77
2021/09/12 06:54:12;;;;;;;2.40;2.20;;;;;;;13.68;82.28;95874.16;6172157;23;20155;-79
2021/09/12 06:56:37;;;;;;;3.10;2.80;;;;;;;13.71;81.80;95871.25;6172517;23;20210;-78
2021/09/12 06:59:02;;;;;;;2.93;2.50;;;;;;;13.84;81.70;95879.41;6173301;23;20244;-79
2021/09/12 07:01:28;;;;;;;3.03;2.30;;;;;;;13.93;81.38;95881.06;6172912;23;20233;-79
2021/09/12 07:03:53;;;;;;;2.30;2.10;;;;;;;14.05;80.36;95884.22;6171452;23;20238;-79
2021/09/12 07:06:18;;;;;;;3.45;2.13;;;;;;;14.14;79.94;95883.25;6146626;23;20239;-79
2021/09/12 07:08:43;;;;;;;2.57;2.10;;;;;;;14.24;79.17;95878.69;6172209;23;20191;-78
2021/09/12 07:11:13;;;;;;;2.97;2.13;;;;;;;14.43;75.85;95880.97;6146816;23;20688;-79
2021/09/12 07:13:39;;;;;;;5.17;2.23;;;;;;;14.67;75.06;95880.19;6171418;23;20147;-79
2021/09/12 07:16:05;;;;;;;2.73;1.90;;;;;;;14.79;71.86;95883.28;6147851;23;20201;-79
2021/09/12 07:18:32;;;;;;;2.50;1.57;;;;;;;14.85;72.74;95887.03;6171192;23;20170;-75
2021/09/12 07:20:57;;;;;;;2.50;1.63;;;;;;;14.91;70.29;95897.63;6173290;23;20151;-78
2021/09/12 07:23:22;;;;;;;2.20;1.65;;;;;;;14.95;71.07;95892.91;6146556;23;20186;-78
2021/09/12 07:25:48;;;;;;;2.17;1.90;;;;;;;14.90;72.26;95893.38;6170601;23;20182;-78
2021/09/12 07:28:13;;;;;;;1.50;1.40;;;;;;;14.93;72.11;95898.31;6170833;23;20219;-76
2021/09/12 07:30:38;;;;;;;3.50;1.92;;;;;;;15.14;71.55;95899.56;6171216;23;20218;-79
2021/09/12 07:33:04;;;;;;;2.30;1.70;;;;;;;15.22;71.31;95891.69;6172661;23;20222;-79
2021/09/12 07:35:29;;;;;;;4.05;1.70;;;;;;;15.23;71.94;95898.56;6145521;23;20193;-77
2021/09/12 07:37:54;;;;;;;1.70;1.60;;;;;;;15.37;70.48;95905.72;6173495;23;20151;-79
2021/09/12 07:40:20;;;;;;;2.30;2.10;;;;;;;15.39;69.29;95908.16;6172232;23;20180;-78
2021/09/12 07:42:47;;;;;;;2.03;1.83;;;;;;;15.59;67.94;95906.78;6172350;23;20184;-79
2021/09/12 07:45:12;;;;;;;1.95;1.83;;;;;;;15.57;68.93;95906.94;6171083;23;20171;-77
2021/09/12 07:47:37;;;;;;;2.55;1.63;;;;;;;15.64;69.29;95911.56;6122604;23;20170;-77
2021/09/12 07:50:03;;;;;;;2.78;1.70;;;;;;;15.71;68.58;95917.72;6171932;23;20150;-78
2021/09/12 07:52:29;;;;;;;2.42;2.05;;;;;;;15.72;66.79;95919.34;6173306;23;20151;-78
2021/09/12 07:54:54;;;;;;;2.08;1.88;;;;;;;15.73;67.37;95918.38;6170423;23;20230;-77
2021/09/12 07:57:19;;;;;;;2.53;1.95;;;;;;;15.82;66.75;95915.56;6171761;23;20179;-78
2021/09/12 07:59:44;;;;;;;2.75;1.70;;;;;;;15.90;66.12;95916.47;6171341;23;20167;-78
2021/09/12 08:02:10;;;;;;;2.72;1.80;;;;;;;15.89;66.78;95918.28;6147476;23;20187;-79
2021/09/12 08:04:35;;;;;;;2.30;1.80;;;;;;;16.00;66.74;95917.91;6145965;23;20179;-80
2021/09/12 08:07:00;;;;;;;3.35;1.67;;;;;;;16.06;65.38;95924.25;6171162;23;20166;-78
2021/09/12 08:09:26;;;;;;;2.15;2.00;;;;;;;16.04;65.55;95918.38;6146066;23;20178;-78
2021/09/12 08:11:51;;;;;;;3.30;2.10;;;;;;;16.12;65.31;95929.63;6146383;23;20175;-79
2021/09/12 08:14:16;;;;;;;1.75;1.60;;;;;;;16.10;64.68;95928.19;6169564;23;20151;-77
2021/09/12 08:16:42;;;;;;;2.45;1.95;;;;;;;16.14;64.92;95927.66;6172653;23;20199;-79
2021/09/12 08:19:07;;;;;;;2.03;1.63;;;;;;;16.09;64.32;95937.84;6171584;23;20635;-78
2021/09/12 08:21:32;;;;;;;3.75;1.60;;;;;;;16.22;64.80;95933.84;6171033;23;20207;-78
2021/09/12 08:23:58;;;;;;;4.68;1.90;;;;;;;16.20;65.14;95934.00;6170787;23;20179;-77
2021/09/12 08:26:23;;;;;;;2.08;1.90;;;;;;;16.30;65.46;95934.59;6172566;23;20171;-78
2021/09/12 08:28:48;;;;;;;3.38;1.80;;;;;;;16.30;64.79;95926.75;6146603;23;20218;-79
2021/09/12 08:31:14;;;;;;;2.10;1.95;;;;;;;16.31;65.52;95930.19;6171360;23;20151;-79
2021/09/12 08:33:39;;;;;;;2.33;1.92;;;;;;;16.36;64.99;95922.63;6170690;23;20147;-78
2021/09/12 08:36:04;;;;;;;3.40;2.00;;;;;;;16.37;64.41;95917.19;6170268;23;20163;-79
2021/09/12 08:38:30;;;;;;;2.67;1.83;;;;;;;16.46;63.81;95927.63;6171090;23;20179;-79
2021/09/12 08:40:59;;;;;;;2.17;1.70;;;;;;;16.57;63.92;95930.66;6169115;23;20158;-78
2021/09/12 08:43:25;;;;;;;6.35;1.80;;;;;;;16.55;63.00;95930.00;6146358;23;20243;-78
2021/09/12 08:45:52;;;;;;;1.90;1.80;;;;;;;16.64;63.61;95928.16;6144230;23;20186;-79
2021/09/12 08:48:18;;;;;;;2.33;1.90;;;;;;;16.67;64.19;95931.22;6171633;23;20158;-78
2021/09/12 08:50:44;;;;;;;2.58;1.85;;;;;;;16.79;64.35;95936.91;6146888;23;20159;-79
2021/09/12 08:53:09;;;;;;;2.88;2.00;;;;;;;16.74;63.49;95935.81;6171967;23;20152;-78
2021/09/12 08:55:34;;;;;;;3.55;2.20;;;;;;;16.89;63.68;95929.63;6170362;23;20194;-78
2021/09/12 08:58:02;;;;;;;3.33;2.35;;;;;;;17.04;63.84;95932.25;6146423;23;20163;-78
2021/09/12 09:00:27;;;;;;;3.55;1.90;;;;;;;17.20;64.47;95937.34;6171509;23;20151;-78
2021/09/12 09:02:58;;;;;;;2.42;2.00;;;;;;;17.43;61.92;95931.22;6170504;23;20190;-77
2021/09/12 09:05:29;;;;;;;1.92;1.77;;;;;;;17.45;60.95;95932.66;6169785;23;20194;-78
2021/09/12 09:08:11;;;;;;;2.50;1.75;;;;;;;17.43;62.63;95926.78;6172829;23;20155;-77
2021/09/12 09:10:40;;;;;;;4.55;2.00;;;;;;;17.35;60.65;95928.69;6146991;23;20174;-77
2021/09/12 09:13:23;;;;;;;3.25;2.10;;;;;;;17.36;61.72;95933.75;6172562;23;20147;-79
2021/09/12 09:15:49;;;;;;;3.13;2.15;;;;;;;17.50;59.68;95937.41;6146171;23;20194;-79
2021/09/12 09:18:14;;;;;;;1.95;1.75;;;;;;;17.68;60.59;95937.84;6171955;23;20162;-78
2021/09/12 09:20:39;;;;;;;1.98;1.75;;;;;;;17.67;59.63;95940.63;6146712;23;20163;-78
2021/09/12 09:23:06;;;;;;;3.40;1.90;;;;;;;17.64;60.05;95933.13;6171395;23;20182;-77
2021/09/12 09:25:33;;;;;;;3.38;1.95;;;;;;;17.87;58.88;95927.81;6146227;23;20188;-79
2021/09/12 09:28:06;;;;;;;3.10;2.03;;;;;;;17.94;59.08;95923.44;6171058;23;20155;-77
2021/09/12 09:30:46;;;;;;;2.60;2.17;;;;;;;17.89;58.75;95928.44;6172898;23;20154;-78
2021/09/12 09:33:25;;;;;;;2.60;1.77;;;;;;;17.82;58.47;95921.25;6171952;23;20155;-78
2021/09/12 09:36:06;;;;;;;3.67;1.90;;;;;;;17.98;56.97;95922.06;6169211;23;20183;-77
2021/09/12 09:38:34;;;;;;;3.22;2.05;;;;;;;17.69;58.04;95921.09;6169948;23;20151;-77
2021/09/12 09:41:10;;;;;;;6.15;2.47;;;;;;;17.75;58.85;95915.09;6142899;23;20167;-77
2021/09/12 09:43:43;;;;;;;1.92;1.67;;;;;;;17.80;58.29;95914.56;6168794;23;20255;-78
2021/09/12 09:46:31;;;;;;;3.28;2.10;;;;;;;17.78;58.83;95914.75;6145710;23;20180;-78
2021/09/12 09:49:21;;;;;;;3.05;2.00;;;;;;;17.81;58.92;95913.56;6171796;23;20430;-79
2021/09/12 09:51:54;;;;;;;2.28;2.10;;;;;;;17.87;59.71;95925.97;6173208;23;20175;-79
2021/09/12 09:54:22;;;;;;;2.88;2.17;;;;;;;18.12;58.73;95926.47;6171848;23;20144;-78
2021/09/12 09:56:48;;;;;;;1.83;1.73;;;;;;;18.11;58.30;95927.50;6173552;23;20156;-79
2021/09/12 09:59:14;;;;;;;2.63;2.40;;;;;;;18.31;56.14;95923.25;6148495;23;20174;-78
2021/09/12 10:01:40;;;;;;;4.50;1.90;;;;;;;18.09;55.72;95921.56;6173018;23;20163;-80
2021/09/12 10:04:06;;;;;;;2.22;1.90;;;;;;;18.23;55.01;95925.19;6171929;23;20250;-79
2021/09/12 10:06:31;;;;;;;3.30;1.52;;;;;;;18.36;54.14;95927.94;6173392;23;20638;-79
2021/09/12 10:08:56;;;;;;;5.05;1.90;;;;;;;18.22;55.94;95926.19;6148986;23;20155;-79
2021/09/12 10:11:22;;;;;;;2.35;2.00;;;;;;;18.04;55.71;95923.97;6174501;23;20151;-78
2021/09/12 10:13:48;;;;;;;10.20;5.28;;;;;;;18.07;55.63;95920.97;6171431;23;20187;-79
2021/09/12 10:16:16;;;;;;;2.00;1.80;;;;;;;18.26;54.85;95920.34;6173072;23;20178;-79
2021/09/12 10:18:42;;;;;;;2.42;1.60;;;;;;;18.26;53.97;95916.91;6173301;23;20231;-79
2021/09/12 10:21:27;;;;;;;1.73;1.42;;;;;;;18.34;54.21;95920.25;6173144;23;20152;-78
2021/09/12 10:24:07;;;;;;;1.88;1.38;;;;;;;18.49;54.92;95906.25;6171027;23;20167;-77
2021/09/12 10:26:35;;;;;;;2.80;1.92;;;;;;;18.79;54.01;95913.00;6172876;23;20198;-78
2021/09/12 10:29:01;;;;;;;1.67;1.55;;;;;;;18.85;54.68;95904.38;6172490;23;20163;-78
2021/09/12 10:31:26;;;;;;;3.22;1.63;;;;;;;18.86;54.23;95906.00;6171715;23;20155;-77
2021/09/12 10:34:07;;;;;;;1.83;1.73;;;;;;;19.10;54.19;95907.38;6173551;23;20158;-75
2021/09/12 10:36:32;;;;;;;1.92;1.70;;;;;;;19.28;54.12;95908.72;6172610;23;20254;-77
2021/09/12 10:39:23;;;;;;;1.98;1.67;;;;;;;19.25;53.46;95904.63;6171192;23;20182;-78
2021/09/12 10:42:13;;;;;;;1.50;1.40;;;;;;;19.36;53.34;95906.75;6175012;23;20210;-78
2021/09/12 10:44:39;;;;;;;2.33;1.92;;;;;;;19.41;51.10;95901.72;6172455;23;20190;-78
2021/09/12 10:47:09;;;;;;;3.53;1.95;;;;;;;19.63;51.96;95899.84;6169452;23;20197;-77
2021/09/12 10:49:34;;;;;;;2.47;1.70;;;;;;;19.59;50.24;95895.16;6170488;23;20175;-77
2021/09/12 10:52:00;;;;;;;2.00;1.80;;;;;;;19.85;52.07;95900.53;6169942;23;20229;-77
2021/09/12 10:54:25;;;;;;;2.05;1.63;;;;;;;19.88;51.86;95891.41;6167852;23;20202;-77
2021/09/12 10:57:08;;;;;;;1.77;1.65;;;;;;;20.14;50.76;95893.34;6169625;23;20148;-78
2021/09/12 10:59:33;;;;;;;2.63;2.10;;;;;;;20.19;50.30;95898.84;6172289;23;20139;-77
2021/09/12 11:01:59;;;;;;;2.40;2.17;;;;;;;20.04;51.08;95894.53;6172942;23;20155;-79
2021/09/12 11:04:32;;;;;;;1.92;1.80;;;;;;;19.68;52.26;95893.97;6176848;23;20237;-76
2021/09/12 11:07:03;;;;;;;3.67;1.65;;;;;;;19.94;52.10;95894.09;6169357;23;20152;-77
2021/09/12 11:09:29;;;;;;;3.15;2.30;;;;;;;19.66;51.60;95885.47;6164467;23;20135;-78
2021/09/12 11:11:57;;;;;;;2.97;2.47;;;;;;;19.84;51.13;95884.94;6165567;23;20207;-78
2021/09/12 11:14:23;;;;;;;1.80;1.70;;;;;;;19.91;50.97;95886.59;6164752;23;20185;-77
2021/09/12 11:16:49;;;;;;;2.15;1.95;;;;;;;19.38;51.66;95885.50;6144382;23;20211;-79
2021/09/12 11:19:14;;;;;;;2.13;1.73;;;;;;;19.51;51.76;95881.09;6173201;23;20493;-79
2021/09/12 11:21:48;;;;;;;1.77;1.65;;;;;;;19.27;52.93;95886.84;6173127;23;20155;-77
2021/09/12 11:24:26;;;;;;;3.72;2.03;;;;;;;19.16;54.64;95882.09;6171860;23;20175;-79
2021/09/12 11:26:57;;;;;;;2.05;1.80;;;;;;;19.36;53.28;95883.06;6166330;23;20153;-78
2021/09/12 11:29:23;;;;;;;3.33;2.10;;;;;;;19.32;54.04;95881.81;6143763;23;20609;-77
2021/09/12 11:31:51;;;;;;;2.38;2.17;;;;;;;19.76;53.29;95884.09;6173298;23;20155;-78